GIA712 WIII-YSSY
Flight info
| Callsign | GIA712 |
|---|---|
| Flight time | N/A |
| Altitude | 35000 |
| Route | IMABA A585 SAPDA G222 BRM T11 LUGSA/N0488F370 T11 AS A576 APOMA Y52 VELGI Y105 TARAL Y59 RIVET |
| Aircraft | B77W/H-SDE1E2E3FGHIJ2J3J4J5M1RWXY/LB1D1 |
Departure
| Time | N/A |
|---|---|
| Airport | Soekarno-Hatta International Airport (WIII) |
Arrival
| Time | 2026-04-25 20:56 |
|---|---|
| Airport | Sydney Kingsford Smith International Airport (YSSY) |
| Time | Latitude | Longitude | Altitude | Speed | Heading |
|---|---|---|---|---|---|
| 2026-04-25 20:24 | -31.58107 | 145.13962 | 36257 ft | 531 kts | 129° |
| 2026-04-25 20:25 | -31.69643 | 145.31389 | 36257 ft | 534 kts | 129° |
| 2026-04-25 20:25 | -31.81626 | 145.49577 | 36263 ft | 534 kts | 129° |
| 2026-04-25 20:26 | -31.93523 | 145.67722 | 36267 ft | 533 kts | 129° |
| 2026-04-25 20:26 | -32.05724 | 145.86420 | 36264 ft | 529 kts | 129° |
| 2026-04-25 20:27 | -32.18230 | 146.05679 | 36258 ft | 526 kts | 129° |
| 2026-04-25 20:27 | -32.30993 | 146.25438 | 36279 ft | 522 kts | 129° |
| 2026-04-25 20:28 | -32.42655 | 146.43581 | 36276 ft | 524 kts | 130° |
| 2026-04-25 20:28 | -32.52988 | 146.59729 | 36292 ft | 522 kts | 129° |
| 2026-04-25 20:29 | -32.70013 | 146.86493 | 36293 ft | 511 kts | 129° |
| 2026-04-25 20:29 | -32.75319 | 146.94871 | 36299 ft | 513 kts | 129° |
| 2026-04-25 20:30 | -32.85884 | 147.11614 | 36282 ft | 509 kts | 129° |
| 2026-04-25 20:30 | -32.96795 | 147.28981 | 36306 ft | 509 kts | 129° |
| 2026-04-25 20:31 | -33.07537 | 147.46159 | 36277 ft | 509 kts | 129° |
| 2026-04-25 20:31 | -33.17490 | 147.62151 | 36300 ft | 510 kts | 129° |
| 2026-04-25 20:32 | -33.28527 | 147.79961 | 36295 ft | 510 kts | 128° |
| 2026-04-25 20:32 | -33.39862 | 147.97613 | 36291 ft | 509 kts | 135° |
| 2026-04-25 20:33 | -33.52513 | 148.13719 | 36302 ft | 511 kts | 134° |
| 2026-04-25 20:33 | -33.72595 | 148.39813 | 36437 ft | 509 kts | 134° |
| 2026-04-25 20:33 | -33.95939 | 148.70567 | 35866 ft | 509 kts | 133° |
| 2026-04-25 20:34 | -34.03510 | 148.80603 | 35317 ft | 511 kts | 133° |
| 2026-04-25 20:34 | -34.09212 | 148.88176 | 35321 ft | 512 kts | 133° |
| 2026-04-25 20:34 | -34.20436 | 149.03126 | 35339 ft | 513 kts | 133° |
| 2026-04-25 20:35 | -34.31203 | 149.17525 | 35330 ft | 512 kts | 133° |
| 2026-04-25 20:35 | -34.40591 | 149.30780 | 35264 ft | 505 kts | 122° |
| 2026-04-25 20:36 | -34.42241 | 149.34517 | 34917 ft | 507 kts | 114° |
| 2026-04-25 20:36 | -34.43446 | 149.38533 | 34198 ft | 513 kts | 106° |
| 2026-04-25 20:36 | -34.44171 | 149.42732 | 33630 ft | 515 kts | 99° |
| 2026-04-25 20:36 | -34.44705 | 149.47015 | 33518 ft | 510 kts | 98° |
| 2026-04-25 20:37 | -34.45713 | 149.55396 | 33494 ft | 497 kts | 98° |
| 2026-04-25 20:37 | -34.46202 | 149.59488 | 33353 ft | 495 kts | 98° |
| 2026-04-25 20:37 | -34.46692 | 149.63603 | 32984 ft | 499 kts | 98° |
| 2026-04-25 20:38 | -34.47185 | 149.67761 | 32632 ft | 502 kts | 98° |
| 2026-04-25 20:38 | -34.47677 | 149.71925 | 32456 ft | 500 kts | 98° |
| 2026-04-25 20:38 | -34.48655 | 149.80246 | 31897 ft | 498 kts | 98° |
| 2026-04-25 20:39 | -34.49138 | 149.84390 | 31394 ft | 493 kts | 97° |
| 2026-04-25 20:39 | -34.49330 | 149.88441 | 30890 ft | 486 kts | 88° |
| 2026-04-25 20:39 | -34.49001 | 149.92506 | 30378 ft | 481 kts | 79° |
| 2026-04-25 20:39 | -34.48503 | 149.95090 | 30050 ft | 479 kts | 73° |
| 2026-04-25 20:40 | -34.46860 | 150.00060 | 29358 ft | 475 kts | 64° |
| 2026-04-25 20:40 | -34.45388 | 150.03627 | 28639 ft | 474 kts | 63° |
| 2026-04-25 20:40 | -34.43891 | 150.07159 | 27852 ft | 474 kts | 63° |
| 2026-04-25 20:40 | -34.42364 | 150.10713 | 27040 ft | 472 kts | 63° |
| 2026-04-25 20:41 | -34.40867 | 150.14162 | 26203 ft | 466 kts | 62° |
| 2026-04-25 20:41 | -34.39367 | 150.17592 | 25318 ft | 460 kts | 62° |
| 2026-04-25 20:41 | -34.37872 | 150.20991 | 24420 ft | 454 kts | 62° |
| 2026-04-25 20:41 | -34.36405 | 150.24315 | 23544 ft | 448 kts | 62° |
| 2026-04-25 20:42 | -34.34561 | 150.28476 | 22446 ft | 440 kts | 62° |
| 2026-04-25 20:42 | -34.30856 | 150.36800 | 20163 ft | 414 kts | 62° |
| 2026-04-25 20:42 | -34.27318 | 150.44714 | 17916 ft | 397 kts | 62° |
| 2026-04-25 20:42 | -34.23786 | 150.52620 | 15595 ft | 384 kts | 62° |
| 2026-04-25 20:43 | -34.20554 | 150.59836 | 13405 ft | 373 kts | 62° |
| 2026-04-25 20:43 | -34.17349 | 150.66974 | 11608 ft | 363 kts | 61° |
| 2026-04-25 20:43 | -34.14556 | 150.73181 | 10180 ft | 356 kts | 60° |
| 2026-04-25 20:43 | -34.13387 | 150.75777 | 9576 ft | 353 kts | 60° |
| 2026-04-25 20:44 | -34.12211 | 150.78383 | 9049 ft | 354 kts | 60° |
| 2026-04-25 20:44 | -34.11060 | 150.80936 | 8506 ft | 349 kts | 60° |
| 2026-04-25 20:44 | -34.09910 | 150.83482 | 7959 ft | 338 kts | 61° |
| 2026-04-25 20:44 | -34.08814 | 150.85918 | 7484 ft | 324 kts | 61° |
| 2026-04-25 20:45 | -34.07768 | 150.88243 | 7020 ft | 315 kts | 61° |
| 2026-04-25 20:45 | -34.06737 | 150.90533 | 6534 ft | 311 kts | 61° |
| 2026-04-25 20:45 | -34.05705 | 150.92824 | 6084 ft | 305 kts | 61° |
| 2026-04-25 20:45 | -34.04720 | 150.95009 | 6008 ft | 287 kts | 60° |
| 2026-04-25 20:46 | -34.03809 | 150.97038 | 6006 ft | 272 kts | 63° |
| 2026-04-25 20:46 | -34.03318 | 150.99219 | 5997 ft | 269 kts | 88° |
| 2026-04-25 20:46 | -34.03686 | 151.01413 | 5996 ft | 272 kts | 114° |
| 2026-04-25 20:46 | -34.04692 | 151.03342 | 6008 ft | 274 kts | 127° |
| 2026-04-25 20:47 | -34.05926 | 151.05075 | 6016 ft | 275 kts | 131° |
| 2026-04-25 20:47 | -34.07260 | 151.06753 | 6003 ft | 274 kts | 137° |
| 2026-04-25 20:47 | -34.08919 | 151.07871 | 6012 ft | 276 kts | 161° |
| 2026-04-25 20:47 | -34.10788 | 151.08464 | 5992 ft | 278 kts | 167° |
| 2026-04-25 20:48 | -34.12664 | 151.08948 | 6000 ft | 277 kts | 167° |
| 2026-04-25 20:48 | -34.14568 | 151.09435 | 5798 ft | 280 kts | 167° |
| 2026-04-25 20:48 | -34.16492 | 151.09929 | 5431 ft | 281 kts | 167° |
| 2026-04-25 20:48 | -34.18391 | 151.10422 | 5082 ft | 282 kts | 167° |
| 2026-04-25 20:49 | -34.20311 | 151.10933 | 4685 ft | 282 kts | 163° |
| 2026-04-25 20:49 | -34.22025 | 151.12030 | 4281 ft | 279 kts | 136° |
| 2026-04-25 20:49 | -34.23119 | 151.13902 | 3891 ft | 275 kts | 109° |
| 2026-04-25 20:49 | -34.23403 | 151.16153 | 3495 ft | 270 kts | 82° |
| 2026-04-25 20:50 | -34.22855 | 151.18265 | 3111 ft | 265 kts | 57° |
| 2026-04-25 20:50 | -34.21614 | 151.19835 | 2988 ft | 251 kts | 34° |
| 2026-04-25 20:50 | -34.20168 | 151.20991 | 2986 ft | 248 kts | 32° |
| 2026-04-25 20:50 | -34.18770 | 151.22082 | 2977 ft | 235 kts | 32° |
| 2026-04-25 20:51 | -34.17334 | 151.22894 | 2960 ft | 220 kts | 11° |
| 2026-04-25 20:51 | -34.15828 | 151.23003 | 2980 ft | 218 kts | 355° |
| 2026-04-25 20:51 | -34.14350 | 151.22716 | 2987 ft | 210 kts | 349° |
| 2026-04-25 20:51 | -34.12951 | 151.22357 | 2983 ft | 200 kts | 348° |
| 2026-04-25 20:52 | -34.11607 | 151.21999 | 2998 ft | 199 kts | 348° |
| 2026-04-25 20:52 | -34.10706 | 151.21758 | 2900 ft | 201 kts | 348° |
| 2026-04-25 20:52 | -34.08880 | 151.21277 | 2543 ft | 201 kts | 349° |
| 2026-04-25 20:52 | -34.07550 | 151.20932 | 2281 ft | 186 kts | 349° |
| 2026-04-25 20:53 | -34.06335 | 151.20619 | 2042 ft | 173 kts | 350° |
| 2026-04-25 20:53 | -34.05197 | 151.20325 | 1820 ft | 161 kts | 350° |
| 2026-04-25 20:53 | -34.04129 | 151.20050 | 1604 ft | 150 kts | 350° |
| 2026-04-25 20:53 | -34.03143 | 151.19795 | 1414 ft | 139 kts | 349° |
| 2026-04-25 20:54 | -34.02206 | 151.19553 | 1227 ft | 136 kts | 349° |
| 2026-04-25 20:54 | -34.01289 | 151.19316 | 1040 ft | 133 kts | 348° |
| 2026-04-25 20:54 | -34.00389 | 151.19084 | 859 ft | 134 kts | 348° |
| 2026-04-25 20:54 | -33.99477 | 151.18860 | 664 ft | 135 kts | 348° |
| 2026-04-25 20:55 | -33.98543 | 151.18630 | 459 ft | 135 kts | 348° |
| 2026-04-25 20:55 | -33.97630 | 151.18394 | 285 ft | 135 kts | 347° |
| 2026-04-25 20:55 | -33.96713 | 151.18149 | 133 ft | 136 kts | 347° |
| 2026-04-25 20:55 | -33.95782 | 151.17900 | 35 ft | 126 kts | 347° |
| 2026-04-25 20:56 | -33.95079 | 151.17711 | 35 ft | 82 kts | 348° |
| 2026-04-25 20:56 | -33.94674 | 151.17609 | 35 ft | 42 kts | 345° |
| 2026-04-25 20:56 | -33.94497 | 151.17519 | 35 ft | 25 kts | 332° |
| 2026-04-25 20:56 | -33.94363 | 151.17394 | 35 ft | 23 kts | 317° |
| 2026-04-25 20:57 | -33.94233 | 151.17293 | 35 ft | 21 kts | 347° |
| 2026-04-25 20:57 | -33.94093 | 151.17256 | 35 ft | 19 kts | 347° |
| 2026-04-25 20:57 | -33.94017 | 151.17233 | 35 ft | 9 kts | 343° |
| 2026-04-25 20:57 | -33.93984 | 151.17174 | 35 ft | 9 kts | 267° |
| 2026-04-25 20:58 | -33.94001 | 151.17097 | 35 ft | 10 kts | 253° |
| 2026-04-25 20:58 | -33.94020 | 151.17018 | 35 ft | 9 kts | 253° |
| 2026-04-25 20:58 | -33.94030 | 151.16980 | 35 ft | 0 kts | 253° |
| 2026-04-25 20:59 | -33.94031 | 151.16975 | 35 ft | 2 kts | 253° |
| 2026-04-25 20:59 | -33.94045 | 151.16917 | 35 ft | 10 kts | 253° |
| 2026-04-25 20:59 | -33.94065 | 151.16835 | 35 ft | 10 kts | 254° |
| 2026-04-25 21:00 | -33.94085 | 151.16754 | 35 ft | 10 kts | 254° |
| 2026-04-25 21:00 | -33.94096 | 151.16701 | 35 ft | 9 kts | 257° |
| 2026-04-25 21:00 | -33.94117 | 151.16597 | 35 ft | 2 kts | 269° |
| 2026-04-25 21:01 | -33.94114 | 151.16582 | 35 ft | 1 kts | 298° |
| 2026-04-25 21:01 | -33.94102 | 151.16569 | 35 ft | 2 kts | 332° |
| 2026-04-25 21:01 | -33.94080 | 151.16559 | 35 ft | 3 kts | 341° |
| 2026-04-25 21:01 | -33.94064 | 151.16553 | 35 ft | 1 kts | 343° |
| 2026-04-25 21:02 | -33.94051 | 151.16548 | 35 ft | 2 kts | 343° |
| 2026-04-25 21:02 | -33.94036 | 151.16544 | 35 ft | 0 kts | 344° |
| 2026-04-25 21:02 | -33.94032 | 151.16542 | 35 ft | 0 kts | 344° |
| 2026-04-25 21:02 | -33.94029 | 151.16540 | 35 ft | 0 kts | 344° |